createdAt,value
2018-09-01T00:00:15.335Z,100888
2018-09-01T00:01:20.800Z,100891
2018-09-01T00:02:26.264Z,100885
2018-09-01T00:03:31.748Z,100894
2018-09-01T00:04:36.628Z,100891
2018-09-01T00:05:41.831Z,100891
2018-09-01T00:06:47.672Z,100891
2018-09-01T00:07:53.149Z,100882
2018-09-01T00:08:58.051Z,100885
2018-09-01T00:10:02.858Z,100894
2018-09-01T00:11:08.205Z,100879
2018-09-01T00:12:13.875Z,100879
2018-09-01T00:13:19.001Z,100894
2018-09-01T00:14:23.889Z,100885
2018-09-01T00:15:28.734Z,100879
2018-09-01T00:16:33.980Z,100891
2018-09-01T00:17:39.138Z,100891
2018-09-01T00:18:44.972Z,100888
2018-09-01T00:19:49.981Z,100891
2018-09-01T00:20:55.444Z,100888
2018-09-01T00:22:01.129Z,100888
2018-09-01T00:23:06.093Z,100894
2018-09-01T00:24:11.535Z,100894
2018-09-01T00:25:17.046Z,100894
2018-09-01T00:26:22.492Z,100894
2018-09-01T00:27:28.456Z,100897
2018-09-01T00:28:33.688Z,100900
2018-09-01T00:29:39.166Z,100905
2018-09-01T00:30:44.898Z,100903
2018-09-01T00:31:50.432Z,100905
2018-09-01T00:32:55.593Z,100908
2018-09-01T00:34:00.830Z,100897
2018-09-01T00:35:06.023Z,100897
2018-09-01T00:36:11.513Z,100894
2018-09-01T00:37:16.834Z,100897
2018-09-01T00:38:22.120Z,100902
2018-09-01T00:39:27.592Z,100897
2018-09-01T00:40:33.046Z,100900
2018-09-01T00:41:38.481Z,100903
2018-09-01T00:42:44.042Z,100894
2018-09-01T00:43:49.481Z,100897
2018-09-01T00:44:54.933Z,100911
2018-09-01T00:46:00.477Z,100903
2018-09-01T00:47:05.911Z,100897
2018-09-01T00:48:11.108Z,100911
2018-09-01T00:49:16.989Z,100894
2018-09-01T00:50:22.140Z,100908
2018-09-01T00:51:27.830Z,100903
2018-09-01T00:52:33.269Z,100902
2018-09-01T00:53:38.707Z,100908
2018-09-01T00:54:43.999Z,100905
2018-09-01T00:55:49.442Z,100908
2018-09-01T00:56:54.896Z,100905
2018-09-01T00:58:00.923Z,100897
2018-09-01T00:59:05.862Z,100911
2018-09-01T01:00:11.070Z,100917
2018-09-01T01:01:16.311Z,100908
2018-09-01T01:02:21.581Z,100920
2018-09-01T01:03:27.772Z,100914
2018-09-01T01:04:33.273Z,100920
2018-09-01T01:05:38.434Z,100911
2018-09-01T01:06:44.127Z,100914
2018-09-01T01:07:49.606Z,100911
2018-09-01T01:08:54.486Z,100905
2018-09-01T01:09:59.937Z,100911
2018-09-01T01:11:04.588Z,100902
2018-09-01T01:12:09.830Z,100911
2018-09-01T01:13:15.700Z,100914
2018-09-01T01:14:20.619Z,100914
2018-09-01T01:15:40.834Z,100905
2018-09-01T01:16:46.270Z,100914
2018-09-01T01:17:51.144Z,100914
2018-09-01T01:18:56.599Z,100914
2018-09-01T01:20:01.836Z,100908
2018-09-01T01:21:06.469Z,100917
2018-09-01T01:22:12.103Z,100920
2018-09-01T01:23:17.564Z,100908
2018-09-01T01:24:22.798Z,100905
2018-09-01T01:25:28.694Z,100914
2018-09-01T01:26:34.161Z,100908
2018-09-01T01:27:39.571Z,100914
2018-09-01T01:28:44.731Z,100917
2018-09-01T01:29:49.965Z,100906
2018-09-01T01:30:55.699Z,100906
2018-09-01T01:32:00.570Z,100897
2018-09-01T01:33:05.867Z,100897
2018-09-01T01:34:11.163Z,100891
2018-09-01T01:35:16.173Z,100911
2018-09-01T01:36:21.611Z,100911
2018-09-01T01:37:41.741Z,100903
2018-09-01T01:38:46.953Z,100908
2018-09-01T01:39:51.785Z,100914
2018-09-01T01:40:57.230Z,100903
2018-09-01T01:42:02.116Z,100900
2018-09-01T01:43:07.306Z,100906
2018-09-01T01:44:12.529Z,100906
2018-09-01T01:45:17.677Z,100894
2018-09-01T01:46:23.492Z,100897
2018-09-01T01:47:28.925Z,100906
2018-09-01T01:48:34.630Z,100903
2018-09-01T01:49:40.001Z,100900
2018-09-01T01:50:45.225Z,100900
2018-09-01T01:51:50.862Z,100900
2018-09-01T01:52:56.304Z,100908
2018-09-01T01:54:01.488Z,100900
2018-09-01T01:55:06.737Z,100908
2018-09-01T01:56:12.188Z,100903
2018-09-01T01:57:17.060Z,100897
2018-09-01T01:58:22.480Z,100900
2018-09-01T01:59:27.919Z,100897
2018-09-01T02:00:32.921Z,100906
2018-09-01T02:01:37.805Z,100897
2018-09-01T02:02:42.987Z,100914
2018-09-01T02:03:48.079Z,100891
2018-09-01T02:04:52.957Z,100900
2018-09-01T02:05:58.437Z,100906
2018-09-01T02:07:03.775Z,100900
2018-09-01T02:08:09.217Z,100906
2018-09-01T02:09:14.754Z,100903
2018-09-01T02:10:20.211Z,100908
2018-09-01T02:11:25.371Z,100914
2018-09-01T02:12:31.341Z,100903
2018-09-01T02:13:36.804Z,100906
2018-09-01T02:14:41.395Z,100908
2018-09-01T02:15:47.143Z,100906
2018-09-01T02:16:52.360Z,100908
2018-09-01T02:17:57.800Z,100906
2018-09-01T02:19:03.248Z,100906
2018-09-01T02:20:08.825Z,100911
2018-09-01T02:21:14.255Z,100914
2018-09-01T02:22:19.495Z,100911
2018-09-01T02:23:24.955Z,100903
2018-09-01T02:24:30.418Z,100911
2018-09-01T02:25:35.366Z,100911
2018-09-01T02:26:40.563Z,100917
2018-09-01T02:27:46.254Z,100906
2018-09-01T02:28:51.745Z,100911
2018-09-01T02:29:56.888Z,100903
2018-09-01T02:31:02.745Z,100911
2018-09-01T02:32:07.945Z,100897
2018-09-01T02:33:12.824Z,100909
2018-09-01T02:34:18.525Z,100908
2018-09-01T02:35:23.967Z,100908
2018-09-01T02:36:29.339Z,100897
2018-09-01T02:37:34.576Z,100908
2018-09-01T02:38:40.023Z,100911
2018-09-01T02:39:45.705Z,100914
2018-09-01T02:40:50.856Z,100906
2018-09-01T02:41:56.294Z,100906
2018-09-01T02:43:01.534Z,100912
2018-09-01T02:44:07.028Z,100920
2018-09-01T02:45:12.187Z,100917
2018-09-01T02:46:17.158Z,100917
2018-09-01T02:47:22.638Z,100909
2018-09-01T02:48:28.398Z,100911
2018-09-01T02:49:33.841Z,100914
2018-09-01T02:50:39.301Z,100923
2018-09-01T02:51:44.352Z,100923
2018-09-01T02:52:49.245Z,100914
2018-09-01T02:53:54.498Z,100914
2018-09-01T02:55:00.019Z,100914
2018-09-01T02:56:05.275Z,100926
2018-09-01T02:57:10.149Z,100929
2018-09-01T02:58:15.751Z,100929
2018-09-01T02:59:21.002Z,100923
2018-09-01T03:00:26.613Z,100911
2018-09-01T03:01:32.153Z,100914
2018-09-01T03:02:37.387Z,100938
2018-09-01T03:03:42.519Z,100903
2018-09-01T03:04:47.756Z,100917
2018-09-01T03:05:52.934Z,100917
2018-09-01T03:06:58.774Z,100929
2018-09-01T03:08:04.207Z,100932
2018-09-01T03:09:09.783Z,100929
2018-09-01T03:10:15.576Z,100923
2018-09-01T03:11:20.760Z,100929
2018-09-01T03:12:40.831Z,100935
2018-09-01T03:13:45.988Z,100932
2018-09-01T03:14:51.167Z,100935
2018-09-01T03:15:56.399Z,100932
2018-09-01T03:17:01.273Z,100935
2018-09-01T03:18:05.876Z,100932
2018-09-01T03:19:11.452Z,100932
2018-09-01T03:20:16.932Z,100929
2018-09-01T03:21:22.374Z,100929
2018-09-01T03:22:28.708Z,100926
2018-09-01T03:23:33.860Z,100932
2018-09-01T03:24:39.539Z,100938
2018-09-01T03:25:45.022Z,100932
2018-09-01T03:26:50.185Z,100932
2018-09-01T03:27:55.908Z,100935
2018-09-01T03:29:01.107Z,100923
2018-09-01T03:30:05.707Z,100937
2018-09-01T03:31:10.944Z,100935
2018-09-01T03:32:15.938Z,100937
2018-09-01T03:33:21.376Z,100940
2018-09-01T03:34:41.762Z,100943
2018-09-01T03:35:46.659Z,100929
2018-09-01T03:36:52.082Z,100932
2018-09-01T03:37:57.569Z,100934
2018-09-01T03:39:02.192Z,100937
2018-09-01T03:40:07.156Z,100940
2018-09-01T03:41:12.615Z,100940
2018-09-01T03:42:17.517Z,100940
2018-09-01T03:43:23.028Z,100943
2018-09-01T03:44:28.483Z,100932
2018-09-01T03:45:34.044Z,100940
2018-09-01T03:46:39.478Z,100940
2018-09-01T03:47:44.642Z,100940
2018-09-01T03:48:49.773Z,100949
2018-09-01T03:49:55.199Z,100934
2018-09-01T03:51:00.644Z,100937
2018-09-01T03:52:05.582Z,100934
2018-09-01T03:53:10.459Z,100934
2018-09-01T03:54:15.716Z,100940
2018-09-01T03:55:21.404Z,100937
2018-09-01T03:56:26.941Z,100943
2018-09-01T03:57:32.623Z,100943
2018-09-01T03:58:37.576Z,100949
2018-09-01T03:59:43.131Z,100946
2018-09-01T04:00:48.913Z,100943
2018-09-01T04:01:53.243Z,100946
2018-09-01T04:02:58.114Z,100940
2018-09-01T04:04:03.115Z,100946
2018-09-01T04:05:08.608Z,100946
2018-09-01T04:06:13.532Z,100952
2018-09-01T04:07:19.221Z,100946
2018-09-01T04:08:24.661Z,100940
2018-09-01T04:09:30.068Z,100946
2018-09-01T04:10:35.345Z,100934
2018-09-01T04:11:40.842Z,100952
2018-09-01T04:12:46.244Z,100949
2018-09-01T04:13:51.479Z,100958
2018-09-01T04:14:56.676Z,100949
2018-09-01T04:16:01.915Z,100949
2018-09-01T04:17:07.096Z,100952
2018-09-01T04:18:12.599Z,100952
2018-09-01T04:19:18.444Z,100960
2018-09-01T04:20:23.665Z,100943
2018-09-01T04:21:29.521Z,100949
2018-09-01T04:22:34.804Z,100955
2018-09-01T04:23:40.250Z,100949
2018-09-01T04:24:45.692Z,100946
2018-09-01T04:25:50.878Z,100949
2018-09-01T04:26:55.748Z,100952
2018-09-01T04:28:01.433Z,100943
2018-09-01T04:29:06.056Z,100946
2018-09-01T04:30:11.031Z,100952
2018-09-01T04:31:16.735Z,100949
2018-09-01T04:32:21.611Z,100952
2018-09-01T04:33:27.218Z,100949
2018-09-01T04:34:32.717Z,100960
2018-09-01T04:35:38.180Z,100955
2018-09-01T04:36:43.750Z,100955
2018-09-01T04:37:48.922Z,100952
2018-09-01T04:38:53.839Z,100960
2018-09-01T04:39:59.588Z,100957
2018-09-01T04:41:05.041Z,100960
2018-09-01T04:42:10.305Z,100963
2018-09-01T04:43:15.571Z,100955
2018-09-01T04:44:20.726Z,100972
2018-09-01T04:45:26.276Z,100960
2018-09-01T04:46:31.184Z,100966
2018-09-01T04:47:36.341Z,100972
2018-09-01T04:48:41.754Z,100972
2018-09-01T04:49:47.278Z,100975
2018-09-01T04:50:52.272Z,100978
2018-09-01T04:51:57.677Z,100975
2018-09-01T04:53:02.618Z,100984
2018-09-01T04:54:07.564Z,100981
2018-09-01T04:55:13.058Z,100986
2018-09-01T04:56:18.227Z,100986
2018-09-01T04:57:23.096Z,100984
2018-09-01T04:58:28.294Z,100986
2018-09-01T04:59:33.499Z,100981
2018-09-01T05:00:39.067Z,100981
2018-09-01T05:01:44.235Z,100986
2018-09-01T05:02:49.412Z,100978
2018-09-01T05:03:54.527Z,100978
2018-09-01T05:04:59.768Z,100978
2018-09-01T05:06:04.977Z,100978
2018-09-01T05:07:10.819Z,100978
2018-09-01T05:08:15.980Z,100978
2018-09-01T05:09:21.473Z,100984
2018-09-01T05:10:27.492Z,101000
2018-09-01T05:11:32.434Z,100994
2018-09-01T05:12:38.008Z,100988
2018-09-01T05:13:43.185Z,100988
2018-09-01T05:14:48.703Z,100986
2018-09-01T05:15:53.735Z,100997
2018-09-01T05:16:59.186Z,101000
2018-09-01T05:18:04.677Z,100986
2018-09-01T05:19:10.290Z,101003
2018-09-01T05:20:15.440Z,101006
2018-09-01T05:21:20.955Z,100997
2018-09-01T05:22:41.316Z,101012
2018-09-01T05:23:46.584Z,101003
2018-09-01T05:24:52.120Z,101012
2018-09-01T05:25:57.073Z,101015
2018-09-01T05:27:02.227Z,101006
2018-09-01T05:28:07.916Z,101006
2018-09-01T05:29:13.116Z,101006
2018-09-01T05:30:18.033Z,101009
2018-09-01T05:31:23.503Z,101018
2018-09-01T05:32:28.108Z,101006
2018-09-01T05:33:33.956Z,101018
2018-09-01T05:34:39.115Z,101015
2018-09-01T05:35:44.583Z,101012
2018-09-01T05:36:50.474Z,101032
2018-09-01T05:37:55.358Z,101012
2018-09-01T05:39:00.258Z,101020
2018-09-01T05:40:05.726Z,101018
2018-09-01T05:41:10.663Z,101012
2018-09-01T05:42:16.124Z,101009
2018-09-01T05:43:20.692Z,101018
2018-09-01T05:44:25.909Z,101018
2018-09-01T05:45:30.916Z,101015
2018-09-01T05:46:36.065Z,101021
2018-09-01T05:47:41.222Z,101029
2018-09-01T05:48:46.726Z,101020
2018-09-01T05:49:51.606Z,101023
2018-09-01T05:50:56.548Z,101032
2018-09-01T05:52:02.045Z,101029
2018-09-01T05:53:06.357Z,101026
2018-09-01T05:54:11.599Z,101029
2018-09-01T05:55:17.302Z,101018
2018-09-01T05:56:22.811Z,101029
2018-09-01T05:57:28.214Z,101026
2018-09-01T05:58:33.458Z,101026
2018-09-01T05:59:38.611Z,101026
2018-09-01T06:00:44.229Z,101029
2018-09-01T06:01:49.173Z,101023
2018-09-01T06:02:54.421Z,101032
2018-09-01T06:04:00.105Z,101032
2018-09-01T06:05:05.385Z,101029
2018-09-01T06:06:11.580Z,101029
2018-09-01T06:07:18.014Z,101029
2018-09-01T06:08:22.589Z,101029
2018-09-01T06:09:28.228Z,101020
2018-09-01T06:10:32.869Z,101026
2018-09-01T06:11:38.155Z,101029
2018-09-01T06:12:43.312Z,101029
2018-09-01T06:13:48.878Z,101018
2018-09-01T06:14:53.753Z,101038
2018-09-01T06:15:59.312Z,101029
2018-09-01T06:17:04.550Z,101029
2018-09-01T06:18:09.767Z,101038
2018-09-01T06:19:15.144Z,101023
2018-09-01T06:20:20.754Z,101044
2018-09-01T06:21:26.140Z,101032
2018-09-01T06:22:31.576Z,101026
2018-09-01T06:23:37.078Z,101038
2018-09-01T06:24:42.365Z,101021
2018-09-01T06:25:47.696Z,101032
2018-09-01T06:26:52.558Z,101035
2018-09-01T06:27:58.440Z,101026
2018-09-01T06:29:03.596Z,101029
2018-09-01T06:30:08.646Z,101029
2018-09-01T06:31:15.076Z,101032
2018-09-01T06:32:20.105Z,101041
2018-09-01T06:33:24.714Z,101041
2018-09-01T06:34:44.242Z,101038
2018-09-01T06:35:49.490Z,101044
2018-09-01T06:36:54.908Z,101047
2018-09-01T06:38:00.067Z,101044
2018-09-01T06:39:05.231Z,101050
2018-09-01T06:40:10.652Z,101047
2018-09-01T06:41:16.090Z,101050
2018-09-01T06:42:21.566Z,101053
2018-09-01T06:43:27.312Z,101050
2018-09-01T06:44:32.762Z,101050
2018-09-01T06:45:38.073Z,101056
2018-09-01T06:46:43.233Z,101053
2018-09-01T06:47:48.161Z,101053
2018-09-01T06:48:53.690Z,101053
2018-09-01T06:49:58.556Z,101058
2018-09-01T06:51:03.725Z,101061
2018-09-01T06:52:09.508Z,101064
2018-09-01T06:53:14.958Z,101053
2018-09-01T06:54:20.176Z,101058
2018-09-01T06:55:24.757Z,101067
2018-09-01T06:56:29.952Z,101059
2018-09-01T06:57:35.592Z,101064
2018-09-01T06:58:40.480Z,101061
2018-09-01T06:59:45.666Z,101070
2018-09-01T07:00:50.839Z,101070
2018-09-01T07:01:56.405Z,101067
2018-09-01T07:03:01.331Z,101067
2018-09-01T07:04:06.463Z,101064
2018-09-01T07:05:11.908Z,101070
2018-09-01T07:06:17.076Z,101067
2018-09-01T07:07:22.475Z,101059
2018-09-01T07:08:27.436Z,101076
2018-09-01T07:09:33.258Z,101073
2018-09-01T07:10:38.120Z,101061
2018-09-01T07:11:43.361Z,101070
2018-09-01T07:12:48.771Z,101062
2018-09-01T07:13:53.667Z,101070
2018-09-01T07:14:59.109Z,101073
2018-09-01T07:16:04.645Z,101059
2018-09-01T07:17:09.804Z,101067
2018-09-01T07:18:14.970Z,101076
2018-09-01T07:19:20.415Z,101073
2018-09-01T07:20:25.868Z,101062
2018-09-01T07:21:31.849Z,101070
2018-09-01T07:22:37.311Z,101070
2018-09-01T07:23:42.748Z,101070
2018-09-01T07:24:48.269Z,101073
2018-09-01T07:25:53.439Z,101073
2018-09-01T07:26:58.597Z,101076
2018-09-01T07:28:03.819Z,101079
2018-09-01T07:29:09.066Z,101079
2018-09-01T07:30:14.978Z,101085
2018-09-01T07:31:22.259Z,101076
2018-09-01T07:32:28.520Z,101079
2018-09-01T07:33:33.915Z,101079
2018-09-01T07:34:39.136Z,101082
2018-09-01T07:35:44.311Z,101079
2018-09-01T07:36:50.062Z,101082
2018-09-01T07:37:55.266Z,101082
2018-09-01T07:39:00.504Z,101082
2018-09-01T07:40:05.642Z,101079
2018-09-01T07:41:10.527Z,101073
2018-09-01T07:42:15.403Z,101079
2018-09-01T07:43:20.991Z,101079
2018-09-01T07:44:26.446Z,101082
2018-09-01T07:45:31.826Z,101085
2018-09-01T07:46:36.771Z,101091
2018-09-01T07:47:42.259Z,101091
2018-09-01T07:48:47.445Z,101091
2018-09-01T07:49:52.398Z,101091
2018-09-01T07:50:57.525Z,101088
2018-09-01T07:52:02.954Z,101085
2018-09-01T07:53:07.827Z,101076
2018-09-01T07:54:12.806Z,101076
2018-09-01T07:55:18.318Z,101091
2018-09-01T07:56:23.888Z,101091
2018-09-01T07:57:29.444Z,101085
2018-09-01T07:58:34.973Z,101076
2018-09-01T07:59:40.158Z,101085
2018-09-01T08:00:45.561Z,101085
2018-09-01T08:01:50.744Z,101102
2018-09-01T08:02:56.299Z,101108
2018-09-01T08:04:02.093Z,101108
2018-09-01T08:05:07.548Z,101110
2018-09-01T08:06:12.756Z,101105
2018-09-01T08:07:18.538Z,101102
2018-09-01T08:08:24.154Z,101108
2018-09-01T08:09:30.006Z,101102
2018-09-01T08:10:35.221Z,101108
2018-09-01T08:11:40.751Z,101105
2018-09-01T08:12:46.436Z,101111
2018-09-01T08:13:51.922Z,101108
2018-09-01T08:14:57.638Z,101105
2018-09-01T08:16:03.091Z,101108
2018-09-01T08:17:08.290Z,101113
2018-09-01T08:18:13.514Z,101114
2018-09-01T08:19:18.714Z,101111
2018-09-01T08:20:23.976Z,101111
2018-09-01T08:21:28.969Z,101114
2018-09-01T08:22:34.138Z,101122
2018-09-01T08:23:39.294Z,101119
2018-09-01T08:24:44.713Z,101119
2018-09-01T08:25:49.324Z,101114
2018-09-01T08:26:53.954Z,101114
2018-09-01T08:27:59.221Z,101111
2018-09-01T08:29:04.734Z,101116
2018-09-01T08:30:09.613Z,101122
2018-09-01T08:31:14.837Z,101122
2018-09-01T08:32:20.015Z,101111
2018-09-01T08:34:45.884Z,101122
2018-09-01T08:35:50.788Z,101125
2018-09-01T08:36:56.477Z,101128
2018-09-01T08:38:01.372Z,101119
2018-09-01T08:39:06.530Z,101122
2018-09-01T08:40:12.375Z,101131
2018-09-01T08:41:17.481Z,101125
2018-09-01T08:42:22.626Z,101140
2018-09-01T08:43:28.416Z,101128
2018-09-01T08:44:33.915Z,101131
2018-09-01T08:45:39.361Z,101125
2018-09-01T08:46:44.638Z,101131
2018-09-01T08:47:49.783Z,101120
2018-09-01T08:48:55.375Z,101137
2018-09-01T08:50:00.625Z,101131
2018-09-01T08:51:05.855Z,101137
2018-09-01T08:52:11.273Z,101137
2018-09-01T08:53:16.183Z,101122
2018-09-01T08:54:21.373Z,101131
2018-09-01T08:55:26.495Z,101137
2018-09-01T08:56:32.119Z,101140
2018-09-01T08:57:37.877Z,101137
2018-09-01T08:58:42.751Z,101137
2018-09-01T08:59:48.192Z,101134
2018-09-01T09:00:53.651Z,101140
2018-09-01T09:01:58.239Z,101128
2018-09-01T09:03:03.702Z,101143
2018-09-01T09:04:09.122Z,101146
2018-09-01T09:05:13.999Z,101146
2018-09-01T09:06:19.195Z,101149
2018-09-01T09:07:24.831Z,101152
2018-09-01T09:08:30.078Z,101143
2018-09-01T09:09:35.661Z,101149
2018-09-01T09:10:41.125Z,101131
2018-09-01T09:11:46.560Z,101134
2018-09-01T09:12:51.781Z,101128
2018-09-01T09:13:56.701Z,101137
2018-09-01T09:15:01.605Z,101131
2018-09-01T09:16:07.014Z,101137
2018-09-01T09:17:11.607Z,101131
2018-09-01T09:18:17.128Z,101128
2018-09-01T09:19:22.953Z,101140
2018-09-01T09:20:27.830Z,101146
2018-09-01T09:21:33.694Z,101134
2018-09-01T09:22:38.921Z,101134
2018-09-01T09:23:44.090Z,101131
2018-09-01T09:24:50.060Z,101137
2018-09-01T09:25:55.000Z,101140
2018-09-01T09:27:00.441Z,101146
2018-09-01T09:28:05.581Z,101143
2018-09-01T09:29:10.744Z,101143
2018-09-01T09:30:15.916Z,101149
2018-09-01T09:31:21.446Z,101137
2018-09-01T09:32:26.025Z,101143
2018-09-01T09:33:31.881Z,101140
2018-09-01T09:34:37.566Z,101140
2018-09-01T09:35:42.632Z,101134
2018-09-01T09:36:48.267Z,101134
2018-09-01T09:37:53.222Z,101140
2018-09-01T09:38:58.725Z,101137
2018-09-01T09:40:04.575Z,101134
2018-09-01T09:41:09.735Z,101140
2018-09-01T09:42:14.890Z,101149
2018-09-01T09:43:20.726Z,101134
2018-09-01T09:44:24.780Z,101129
2018-09-01T09:45:30.054Z,101134
2018-09-01T09:46:35.584Z,101134
2018-09-01T09:47:40.235Z,101132
2018-09-01T09:48:45.925Z,101126
2018-09-01T09:49:50.847Z,101137
2018-09-01T09:50:56.297Z,101140
2018-09-01T09:52:01.727Z,101132
2018-09-01T09:53:06.556Z,101137
2018-09-01T09:54:11.990Z,101123
2018-09-01T09:55:17.400Z,101135
2018-09-01T09:56:22.565Z,101132
2018-09-01T09:57:28.504Z,101132
2018-09-01T09:58:33.094Z,101132
2018-09-01T09:59:37.957Z,101120
2018-09-01T10:00:43.823Z,101123
2018-09-01T10:01:49.273Z,101126
2018-09-01T10:02:54.770Z,101120
2018-09-01T10:04:00.047Z,101120
2018-09-01T10:05:05.504Z,101117
2018-09-01T10:06:10.983Z,101117
2018-09-01T10:07:16.699Z,101123
2018-09-01T10:08:22.224Z,101126
2018-09-01T10:09:28.160Z,101129
2018-09-01T10:10:33.610Z,101126
2018-09-01T10:11:38.855Z,101123
2018-09-01T10:12:44.524Z,101129
2018-09-01T10:13:49.706Z,101123
2018-09-01T10:14:54.640Z,101123
2018-09-01T10:16:00.747Z,101120
2018-09-01T10:17:06.561Z,101123
2018-09-01T10:18:12.116Z,101132
2018-09-01T10:19:16.694Z,101117
2018-09-01T10:20:22.093Z,101120
2018-09-01T10:21:28.138Z,101114
2018-09-01T10:22:33.083Z,101111
2018-09-01T10:23:37.968Z,101114
2018-09-01T10:24:43.098Z,101117
2018-09-01T10:25:47.764Z,101117
2018-09-01T10:26:53.249Z,101111
2018-09-01T10:27:59.286Z,101114
2018-09-01T10:29:04.522Z,101111
2018-09-01T10:30:09.427Z,101117
2018-09-01T10:31:15.015Z,101114
2018-09-01T10:32:20.496Z,101108
2018-09-01T10:33:40.853Z,101106
2018-09-01T10:34:46.369Z,101106
2018-09-01T10:35:51.886Z,101108
2018-09-01T10:36:57.615Z,101103
2018-09-01T10:38:02.771Z,101100
2018-09-01T10:39:08.250Z,101092
2018-09-01T10:40:13.659Z,101109
2018-09-01T10:41:18.894Z,101086
2018-09-01T10:42:24.458Z,101103
2018-09-01T10:43:44.885Z,101109
2018-09-01T10:44:50.076Z,101112
2018-09-01T10:45:56.086Z,101100
2018-09-01T10:47:01.530Z,101103
2018-09-01T10:48:06.293Z,101109
2018-09-01T10:49:11.986Z,101106
2018-09-01T10:50:17.436Z,101100
2018-09-01T10:51:22.714Z,101103
2018-09-01T10:52:28.113Z,101092
2018-09-01T10:53:32.724Z,101078
2018-09-01T10:54:37.597Z,101092
2018-09-01T10:55:43.050Z,101081
2018-09-01T10:56:47.958Z,101083
2018-09-01T10:57:53.179Z,101081
2018-09-01T10:58:58.653Z,101081
2018-09-01T11:00:04.893Z,101078
2018-09-01T11:01:09.761Z,101075
2018-09-01T11:02:14.958Z,101081
2018-09-01T11:03:19.582Z,101084
2018-09-01T11:04:24.700Z,101069
2018-09-01T11:05:29.060Z,101069
2018-09-01T11:06:34.630Z,101069
2018-09-01T11:07:40.138Z,101069
2018-09-01T11:08:45.408Z,101072
2018-09-01T11:09:50.894Z,101072
2018-09-01T11:10:56.069Z,101069
2018-09-01T11:12:01.232Z,101066
2018-09-01T11:13:06.829Z,101072
2018-09-01T11:14:12.292Z,101069
2018-09-01T11:15:16.602Z,101078
2018-09-01T11:16:22.302Z,101072
2018-09-01T11:17:27.171Z,101084
2018-09-01T11:18:33.044Z,101063
2018-09-01T11:19:38.301Z,101078
2018-09-01T11:20:43.545Z,101069
2018-09-01T11:21:49.255Z,101066
2018-09-01T11:22:53.863Z,101063
2018-09-01T11:23:59.096Z,101069
2018-09-01T11:25:04.631Z,101075
2018-09-01T11:26:10.069Z,101066
2018-09-01T11:27:15.531Z,101075
2018-09-01T11:28:21.489Z,101066
2018-09-01T11:29:26.701Z,101069
2018-09-01T11:30:32.547Z,101069
2018-09-01T11:31:38.049Z,101066
2018-09-01T11:32:42.953Z,101060
2018-09-01T11:33:48.553Z,101057
2018-09-01T11:34:53.729Z,101063
2018-09-01T11:35:58.679Z,101060
2018-09-01T11:37:04.266Z,101063
2018-09-01T11:38:09.341Z,101057
2018-09-01T11:39:14.588Z,101060
2018-09-01T11:40:20.379Z,101058
2018-09-01T11:41:25.291Z,101049
2018-09-01T11:42:31.531Z,101043
2018-09-01T11:43:37.525Z,101043
2018-09-01T11:44:42.702Z,101043
2018-09-01T11:45:48.429Z,101052
2018-09-01T11:46:53.388Z,101058
2018-09-01T11:47:58.830Z,101046
2018-09-01T11:49:04.006Z,101043
2018-09-01T11:50:09.478Z,101043
2018-09-01T11:51:15.398Z,101040
2018-09-01T11:52:20.855Z,101058
2018-09-01T11:53:25.831Z,101037
2018-09-01T11:54:31.311Z,101034
2018-09-01T11:55:35.912Z,101046
2018-09-01T11:56:41.361Z,101034
2018-09-01T11:57:47.075Z,101034
2018-09-01T11:58:52.570Z,101034
2018-09-01T11:59:58.333Z,101037
2018-09-01T12:01:03.842Z,101034
2018-09-01T12:02:08.743Z,101034
2018-09-01T12:03:14.156Z,101028
2018-09-01T12:04:19.619Z,101040
2018-09-01T12:05:24.490Z,101031
2018-09-01T12:06:30.131Z,101031
2018-09-01T12:07:35.000Z,101020
2018-09-01T12:08:40.488Z,101029
2018-09-01T12:09:46.091Z,101026
2018-09-01T12:10:51.534Z,101023
2018-09-01T12:11:56.706Z,101034
2018-09-01T12:13:02.160Z,101023
2018-09-01T12:14:07.048Z,101029
2018-09-01T12:15:12.218Z,101032
2018-09-01T12:16:17.714Z,101026
2018-09-01T12:17:23.166Z,101032
2018-09-01T12:18:29.080Z,101032
2018-09-01T12:19:34.317Z,101026
2018-09-01T12:20:39.547Z,101035
2018-09-01T12:21:45.113Z,101029
2018-09-01T12:22:50.276Z,101029
2018-09-01T12:23:55.514Z,101023
2018-09-01T12:25:01.220Z,101026
2018-09-01T12:26:06.107Z,101011
2018-09-01T12:27:11.565Z,101011
2018-09-01T12:28:17.136Z,101020
2018-09-01T12:29:22.467Z,101017
2018-09-01T12:30:27.775Z,101026
2018-09-01T12:31:33.244Z,101026
2018-09-01T12:32:37.885Z,101023
2018-09-01T12:33:43.165Z,101020
2018-09-01T12:34:48.328Z,101026
2018-09-01T12:35:53.785Z,101017
2018-09-01T12:36:59.496Z,101035
2018-09-01T12:38:04.427Z,101032
2018-09-01T12:39:09.411Z,101020
2018-09-01T12:40:14.986Z,101023
2018-09-01T12:41:20.458Z,101023
2018-09-01T12:42:40.668Z,101032
2018-09-01T12:43:45.540Z,101023
2018-09-01T12:44:50.492Z,101020
2018-09-01T12:45:55.553Z,101012
2018-09-01T12:47:01.050Z,101015
2018-09-01T12:48:05.661Z,101020
2018-09-01T12:49:10.723Z,101015
2018-09-01T12:50:15.895Z,101017
2018-09-01T12:51:21.074Z,101017
2018-09-01T12:52:26.914Z,101015
2018-09-01T12:53:32.395Z,101023
2018-09-01T12:54:37.947Z,101032
2018-09-01T12:55:43.461Z,101029
2018-09-01T12:56:48.625Z,101023
2018-09-01T12:57:54.563Z,101026
2018-09-01T12:58:59.711Z,101032
2018-09-01T13:00:04.608Z,101026
2018-09-01T13:01:10.183Z,101023
2018-09-01T13:02:15.621Z,101023
2018-09-01T13:03:20.786Z,101023
2018-09-01T13:04:26.224Z,101029
2018-09-01T13:05:31.678Z,101020
2018-09-01T13:06:37.380Z,101026
2018-09-01T13:07:42.308Z,101032
2018-09-01T13:08:47.483Z,101020
2018-09-01T13:09:53.054Z,101032
2018-09-01T13:10:58.227Z,101029
2018-09-01T13:12:03.377Z,101021
2018-09-01T13:13:08.790Z,101018
2018-09-01T13:14:13.950Z,101021
2018-09-01T13:15:19.103Z,101021
2018-09-01T13:16:24.717Z,101018
2018-09-01T13:17:29.974Z,101012
2018-09-01T13:18:35.644Z,101018
2018-09-01T13:19:41.328Z,101024
2018-09-01T13:20:46.911Z,101018
2018-09-01T13:21:52.137Z,101018
2018-09-01T13:22:57.327Z,101006
2018-09-01T13:24:02.239Z,101015
2018-09-01T13:25:07.387Z,101006
2018-09-01T13:26:12.598Z,101003
2018-09-01T13:27:18.089Z,101003
2018-09-01T13:28:23.888Z,101009
2018-09-01T13:29:29.076Z,101012
2018-09-01T13:30:34.251Z,101006
2018-09-01T13:31:39.501Z,101012
2018-09-01T13:32:44.706Z,101030
2018-09-01T13:33:50.189Z,101021
2018-09-01T13:34:55.369Z,101009
2018-09-01T13:36:00.574Z,101021
2018-09-01T13:37:05.737Z,101015
2018-09-01T13:38:10.644Z,101009